sensor_id;sensor_type;location;lat;lon;timestamp;temperature;humidity
326;DHT22;150;52.352;14.058;2023-08-12T00:01:59;20.40;35.90
326;DHT22;150;52.352;14.058;2023-08-12T00:04:26;20.40;35.60
326;DHT22;150;52.352;14.058;2023-08-12T00:06:52;20.40;35.80
326;DHT22;150;52.352;14.058;2023-08-12T00:09:19;20.40;35.60
326;DHT22;150;52.352;14.058;2023-08-12T00:11:45;20.40;35.50
326;DHT22;150;52.352;14.058;2023-08-12T00:14:12;20.30;35.60
326;DHT22;150;52.352;14.058;2023-08-12T00:16:40;20.30;35.60
326;DHT22;150;52.352;14.058;2023-08-12T00:19:07;20.30;36.00
326;DHT22;150;52.352;14.058;2023-08-12T00:21:34;20.30;36.10
326;DHT22;150;52.352;14.058;2023-08-12T00:24:01;20.20;36.00
326;DHT22;150;52.352;14.058;2023-08-12T00:26:28;20.20;36.10
326;DHT22;150;52.352;14.058;2023-08-12T00:28:54;20.20;35.80
326;DHT22;150;52.352;14.058;2023-08-12T00:31:21;20.20;35.90
326;DHT22;150;52.352;14.058;2023-08-12T00:33:49;20.20;36.30
326;DHT22;150;52.352;14.058;2023-08-12T00:36:15;20.20;36.50
326;DHT22;150;52.352;14.058;2023-08-12T00:38:42;20.20;36.30
326;DHT22;150;52.352;14.058;2023-08-12T00:41:08;20.20;36.30
326;DHT22;150;52.352;14.058;2023-08-12T00:43:35;20.10;36.50
326;DHT22;150;52.352;14.058;2023-08-12T00:46:02;20.10;37.50
326;DHT22;150;52.352;14.058;2023-08-12T00:48:29;20.10;37.00
326;DHT22;150;52.352;14.058;2023-08-12T00:50:56;20.10;37.00
326;DHT22;150;52.352;14.058;2023-08-12T00:53:23;20.10;37.10
326;DHT22;150;52.352;14.058;2023-08-12T00:55:50;20.10;37.20
326;DHT22;150;52.352;14.058;2023-08-12T00:58:17;20.10;37.60
326;DHT22;150;52.352;14.058;2023-08-12T01:00:43;20.10;37.70
326;DHT22;150;52.352;14.058;2023-08-12T01:03:11;20.10;37.70
326;DHT22;150;52.352;14.058;2023-08-12T01:05:38;20.10;38.00
326;DHT22;150;52.352;14.058;2023-08-12T01:08:05;20.10;38.00
326;DHT22;150;52.352;14.058;2023-08-12T01:10:35;20.00;37.90
326;DHT22;150;52.352;14.058;2023-08-12T01:13:09;20.00;37.70
326;DHT22;150;52.352;14.058;2023-08-12T01:15:40;20.00;37.70
326;DHT22;150;52.352;14.058;2023-08-12T01:18:07;20.00;38.00
326;DHT22;150;52.352;14.058;2023-08-12T01:20:34;20.00;37.90
326;DHT22;150;52.352;14.058;2023-08-12T01:23:12;20.00;38.00
326;DHT22;150;52.352;14.058;2023-08-12T01:25:39;20.00;38.60
326;DHT22;150;52.352;14.058;2023-08-12T01:28:07;20.00;38.70
326;DHT22;150;52.352;14.058;2023-08-12T01:30:36;20.00;38.70
326;DHT22;150;52.352;14.058;2023-08-12T01:33:07;20.00;39.00
326;DHT22;150;52.352;14.058;2023-08-12T01:35:40;20.00;38.00
326;DHT22;150;52.352;14.058;2023-08-12T01:38:09;19.90;37.90
326;DHT22;150;52.352;14.058;2023-08-12T01:40:38;19.90;37.90
326;DHT22;150;52.352;14.058;2023-08-12T01:43:05;19.80;37.90
326;DHT22;150;52.352;14.058;2023-08-12T01:45:33;19.80;38.30
326;DHT22;150;52.352;14.058;2023-08-12T01:48:00;19.80;38.60
326;DHT22;150;52.352;14.058;2023-08-12T01:50:27;19.80;38.50
326;DHT22;150;52.352;14.058;2023-08-12T01:52:53;19.80;38.40
326;DHT22;150;52.352;14.058;2023-08-12T01:55:20;19.80;37.90
326;DHT22;150;52.352;14.058;2023-08-12T01:57:48;19.80;37.80
326;DHT22;150;52.352;14.058;2023-08-12T02:00:15;19.80;37.90
326;DHT22;150;52.352;14.058;2023-08-12T02:02:42;19.80;37.60
326;DHT22;150;52.352;14.058;2023-08-12T02:05:11;19.80;37.60
326;DHT22;150;52.352;14.058;2023-08-12T02:07:38;19.80;37.30
326;DHT22;150;52.352;14.058;2023-08-12T02:10:05;19.80;37.40
326;DHT22;150;52.352;14.058;2023-08-12T02:12:32;19.80;37.40
326;DHT22;150;52.352;14.058;2023-08-12T02:14:59;19.80;37.60
326;DHT22;150;52.352;14.058;2023-08-12T02:17:26;19.80;36.60
326;DHT22;150;52.352;14.058;2023-08-12T02:19:53;19.70;36.40
326;DHT22;150;52.352;14.058;2023-08-12T02:22:19;19.60;36.80
326;DHT22;150;52.352;14.058;2023-08-12T02:24:46;19.50;37.20
326;DHT22;150;52.352;14.058;2023-08-12T02:27:13;19.40;37.30
326;DHT22;150;52.352;14.058;2023-08-12T02:29:39;19.40;37.90
326;DHT22;150;52.352;14.058;2023-08-12T02:32:07;19.40;38.20
326;DHT22;150;52.352;14.058;2023-08-12T02:34:34;19.40;38.30
326;DHT22;150;52.352;14.058;2023-08-12T02:37:00;19.40;38.00
326;DHT22;150;52.352;14.058;2023-08-12T02:39:27;19.40;37.20
326;DHT22;150;52.352;14.058;2023-08-12T02:41:53;19.40;37.20
326;DHT22;150;52.352;14.058;2023-08-12T02:44:20;19.40;37.60
326;DHT22;150;52.352;14.058;2023-08-12T02:46:47;19.40;37.50
326;DHT22;150;52.352;14.058;2023-08-12T02:49:14;19.40;37.30
326;DHT22;150;52.352;14.058;2023-08-12T02:51:41;19.40;38.00
326;DHT22;150;52.352;14.058;2023-08-12T02:54:08;19.40;37.40
326;DHT22;150;52.352;14.058;2023-08-12T02:56:34;19.40;37.30
326;DHT22;150;52.352;14.058;2023-08-12T02:59:01;19.40;37.60
326;DHT22;150;52.352;14.058;2023-08-12T03:01:27;19.40;37.30
326;DHT22;150;52.352;14.058;2023-08-12T03:03:55;19.50;37.60
326;DHT22;150;52.352;14.058;2023-08-12T03:06:23;19.40;37.00
326;DHT22;150;52.352;14.058;2023-08-12T03:08:50;19.40;37.30
326;DHT22;150;52.352;14.058;2023-08-12T03:11:16;19.40;37.70
326;DHT22;150;52.352;14.058;2023-08-12T03:13:44;19.40;37.60
326;DHT22;150;52.352;14.058;2023-08-12T03:16:11;19.40;38.10
326;DHT22;150;52.352;14.058;2023-08-12T03:18:39;19.40;38.20
326;DHT22;150;52.352;14.058;2023-08-12T03:21:06;19.40;38.30
326;DHT22;150;52.352;14.058;2023-08-12T03:23:35;19.40;38.30
326;DHT22;150;52.352;14.058;2023-08-12T03:26:02;19.40;38.50
326;DHT22;150;52.352;14.058;2023-08-12T03:28:29;19.40;38.50
326;DHT22;150;52.352;14.058;2023-08-12T03:30:55;19.40;38.00
326;DHT22;150;52.352;14.058;2023-08-12T03:33:22;19.40;37.70
326;DHT22;150;52.352;14.058;2023-08-12T03:35:49;19.40;38.10
326;DHT22;150;52.352;14.058;2023-08-12T03:38:16;19.40;38.50
326;DHT22;150;52.352;14.058;2023-08-12T03:40:44;19.40;38.00
326;DHT22;150;52.352;14.058;2023-08-12T03:43:10;19.40;37.80
326;DHT22;150;52.352;14.058;2023-08-12T03:45:39;19.40;37.60
326;DHT22;150;52.352;14.058;2023-08-12T03:48:06;19.40;37.40
326;DHT22;150;52.352;14.058;2023-08-12T03:50:33;19.40;37.20
326;DHT22;150;52.352;14.058;2023-08-12T03:53:00;19.30;36.70
326;DHT22;150;52.352;14.058;2023-08-12T03:55:27;19.30;36.70
326;DHT22;150;52.352;14.058;2023-08-12T03:57:54;19.20;37.10
326;DHT22;150;52.352;14.058;2023-08-12T04:00:21;19.20;36.90
326;DHT22;150;52.352;14.058;2023-08-12T04:02:48;19.20;37.20
326;DHT22;150;52.352;14.058;2023-08-12T04:05:14;19.30;37.20
326;DHT22;150;52.352;14.058;2023-08-12T04:07:41;19.30;37.50
326;DHT22;150;52.352;14.058;2023-08-12T04:10:08;19.20;36.10
326;DHT22;150;52.352;14.058;2023-08-12T04:12:35;19.30;36.30
326;DHT22;150;52.352;14.058;2023-08-12T04:15:03;19.20;36.30
326;DHT22;150;52.352;14.058;2023-08-12T04:17:31;19.10;36.90
326;DHT22;150;52.352;14.058;2023-08-12T04:19:58;19.10;37.20
326;DHT22;150;52.352;14.058;2023-08-12T04:22:24;19.00;36.80
326;DHT22;150;52.352;14.058;2023-08-12T04:24:51;19.00;37.10
326;DHT22;150;52.352;14.058;2023-08-12T04:27:18;19.00;37.20
326;DHT22;150;52.352;14.058;2023-08-12T04:29:45;19.00;37.60
326;DHT22;150;52.352;14.058;2023-08-12T04:32:13;18.90;37.60
326;DHT22;150;52.352;14.058;2023-08-12T04:34:40;18.90;37.00
326;DHT22;150;52.352;14.058;2023-08-12T04:37:06;19.00;37.40
326;DHT22;150;52.352;14.058;2023-08-12T04:39:33;19.00;37.40
326;DHT22;150;52.352;14.058;2023-08-12T04:41:59;19.00;37.60
326;DHT22;150;52.352;14.058;2023-08-12T04:44:26;19.10;37.20
326;DHT22;150;52.352;14.058;2023-08-12T04:46:53;19.10;37.20
326;DHT22;150;52.352;14.058;2023-08-12T04:49:20;19.20;36.60
326;DHT22;150;52.352;14.058;2023-08-12T04:51:51;19.30;37.70
326;DHT22;150;52.352;14.058;2023-08-12T04:54:17;19.30;36.60
326;DHT22;150;52.352;14.058;2023-08-12T04:56:44;19.30;36.90
326;DHT22;150;52.352;14.058;2023-08-12T04:59:11;19.20;36.90
326;DHT22;150;52.352;14.058;2023-08-12T05:01:37;19.30;36.80
326;DHT22;150;52.352;14.058;2023-08-12T05:04:04;19.40;36.70
326;DHT22;150;52.352;14.058;2023-08-12T05:06:32;19.50;35.90
326;DHT22;150;52.352;14.058;2023-08-12T05:08:59;19.60;35.90
326;DHT22;150;52.352;14.058;2023-08-12T05:11:25;19.70;36.10
326;DHT22;150;52.352;14.058;2023-08-12T05:13:52;19.70;35.50
326;DHT22;150;52.352;14.058;2023-08-12T05:16:19;19.90;35.30
326;DHT22;150;52.352;14.058;2023-08-12T05:18:46;19.90;34.90
326;DHT22;150;52.352;14.058;2023-08-12T05:21:12;20.00;35.10
326;DHT22;150;52.352;14.058;2023-08-12T05:23:40;20.00;34.70
326;DHT22;150;52.352;14.058;2023-08-12T05:26:06;20.10;34.60
326;DHT22;150;52.352;14.058;2023-08-12T05:28:33;20.20;34.60
326;DHT22;150;52.352;14.058;2023-08-12T05:31:00;20.30;34.80
326;DHT22;150;52.352;14.058;2023-08-12T05:33:26;20.50;34.10
326;DHT22;150;52.352;14.058;2023-08-12T05:35:53;20.60;33.90
326;DHT22;150;52.352;14.058;2023-08-12T05:38:19;20.80;34.20
326;DHT22;150;52.352;14.058;2023-08-12T05:40:47;21.00;33.60
326;DHT22;150;52.352;14.058;2023-08-12T05:43:14;21.30;33.30
326;DHT22;150;52.352;14.058;2023-08-12T05:45:40;21.50;31.60
326;DHT22;150;52.352;14.058;2023-08-12T05:48:07;21.60;31.70
326;DHT22;150;52.352;14.058;2023-08-12T05:50:34;21.80;31.60
326;DHT22;150;52.352;14.058;2023-08-12T05:53:01;21.90;30.70
326;DHT22;150;52.352;14.058;2023-08-12T05:55:27;21.90;30.70
326;DHT22;150;52.352;14.058;2023-08-12T05:57:55;21.90;30.30
326;DHT22;150;52.352;14.058;2023-08-12T06:00:21;22.00;30.70
326;DHT22;150;52.352;14.058;2023-08-12T06:02:48;22.00;30.80
326;DHT22;150;52.352;14.058;2023-08-12T06:05:15;22.10;30.70
326;DHT22;150;52.352;14.058;2023-08-12T06:07:41;22.10;30.10
326;DHT22;150;52.352;14.058;2023-08-12T06:10:09;22.20;30.10
326;DHT22;150;52.352;14.058;2023-08-12T06:12:35;22.30;30.90
326;DHT22;150;52.352;14.058;2023-08-12T06:15:04;22.40;30.00
326;DHT22;150;52.352;14.058;2023-08-12T06:17:31;22.60;30.00
326;DHT22;150;52.352;14.058;2023-08-12T06:19:57;22.70;30.00
326;DHT22;150;52.352;14.058;2023-08-12T06:22:24;22.80;29.90
326;DHT22;150;52.352;14.058;2023-08-12T06:24:50;23.00;29.80
326;DHT22;150;52.352;14.058;2023-08-12T06:27:17;23.30;29.50
326;DHT22;150;52.352;14.058;2023-08-12T06:29:45;23.30;28.40
326;DHT22;150;52.352;14.058;2023-08-12T06:32:13;23.40;28.90
326;DHT22;150;52.352;14.058;2023-08-12T06:34:40;23.50;28.80
326;DHT22;150;52.352;14.058;2023-08-12T06:37:06;23.60;28.20
326;DHT22;150;52.352;14.058;2023-08-12T06:39:33;23.70;27.50
326;DHT22;150;52.352;14.058;2023-08-12T06:41:59;23.80;27.90
326;DHT22;150;52.352;14.058;2023-08-12T06:44:26;23.90;26.70
326;DHT22;150;52.352;14.058;2023-08-12T06:46:53;24.00;27.50
326;DHT22;150;52.352;14.058;2023-08-12T06:49:20;24.10;26.50
326;DHT22;150;52.352;14.058;2023-08-12T06:51:47;24.10;26.70
326;DHT22;150;52.352;14.058;2023-08-12T06:54:14;24.20;27.10
326;DHT22;150;52.352;14.058;2023-08-12T06:56:40;24.20;26.30
326;DHT22;150;52.352;14.058;2023-08-12T06:59:07;24.20;26.60
326;DHT22;150;52.352;14.058;2023-08-12T07:01:34;24.20;25.70
326;DHT22;150;52.352;14.058;2023-08-12T07:04:00;24.20;25.50
326;DHT22;150;52.352;14.058;2023-08-12T07:06:28;24.20;25.70
326;DHT22;150;52.352;14.058;2023-08-12T07:08:55;24.10;25.70
326;DHT22;150;52.352;14.058;2023-08-12T07:11:22;24.20;26.20
326;DHT22;150;52.352;14.058;2023-08-12T07:13:48;24.20;26.50
326;DHT22;150;52.352;14.058;2023-08-12T07:16:15;24.20;26.40
326;DHT22;150;52.352;14.058;2023-08-12T07:18:42;24.30;26.20
326;DHT22;150;52.352;14.058;2023-08-12T07:21:08;24.50;25.80
326;DHT22;150;52.352;14.058;2023-08-12T07:23:36;24.60;25.60
326;DHT22;150;52.352;14.058;2023-08-12T07:26:03;24.80;26.10
326;DHT22;150;52.352;14.058;2023-08-12T07:28:29;24.90;25.80
326;DHT22;150;52.352;14.058;2023-08-12T07:30:56;25.10;25.40
326;DHT22;150;52.352;14.058;2023-08-12T07:33:22;25.20;25.10
326;DHT22;150;52.352;14.058;2023-08-12T07:35:50;25.30;25.10
326;DHT22;150;52.352;14.058;2023-08-12T07:38:16;25.40;25.20
326;DHT22;150;52.352;14.058;2023-08-12T07:40:44;25.40;24.40
326;DHT22;150;52.352;14.058;2023-08-12T07:43:11;25.50;25.20
326;DHT22;150;52.352;14.058;2023-08-12T07:45:38;25.60;24.80
326;DHT22;150;52.352;14.058;2023-08-12T07:48:05;25.80;23.80
326;DHT22;150;52.352;14.058;2023-08-12T07:50:31;25.90;22.90
326;DHT22;150;52.352;14.058;2023-08-12T07:52:58;26.10;23.30
326;DHT22;150;52.352;14.058;2023-08-12T07:55:24;26.10;22.60
326;DHT22;150;52.352;14.058;2023-08-12T07:57:52;26.20;22.10
326;DHT22;150;52.352;14.058;2023-08-12T08:00:19;26.20;22.00
326;DHT22;150;52.352;14.058;2023-08-12T08:02:46;26.30;22.40
326;DHT22;150;52.352;14.058;2023-08-12T08:05:12;26.30;21.80
326;DHT22;150;52.352;14.058;2023-08-12T08:07:39;26.10;22.70
326;DHT22;150;52.352;14.058;2023-08-12T08:10:06;26.10;23.10
326;DHT22;150;52.352;14.058;2023-08-12T08:12:33;26.10;22.70
326;DHT22;150;52.352;14.058;2023-08-12T08:15:01;26.10;23.20
326;DHT22;150;52.352;14.058;2023-08-12T08:17:28;26.00;23.80
326;DHT22;150;52.352;14.058;2023-08-12T08:19:55;26.00;24.00
326;DHT22;150;52.352;14.058;2023-08-12T08:22:22;26.10;23.10
326;DHT22;150;52.352;14.058;2023-08-12T08:24:48;26.20;23.20
326;DHT22;150;52.352;14.058;2023-08-12T08:27:15;26.10;23.60
326;DHT22;150;52.352;14.058;2023-08-12T08:29:41;26.10;23.80
326;DHT22;150;52.352;14.058;2023-08-12T08:32:09;26.30;23.00
326;DHT22;150;52.352;14.058;2023-08-12T08:34:36;26.50;23.20
326;DHT22;150;52.352;14.058;2023-08-12T08:37:03;26.80;22.80
326;DHT22;150;52.352;14.058;2023-08-12T08:39:29;27.10;22.10
326;DHT22;150;52.352;14.058;2023-08-12T08:41:56;27.40;22.00
326;DHT22;150;52.352;14.058;2023-08-12T08:44:23;27.70;22.00
326;DHT22;150;52.352;14.058;2023-08-12T08:46:52;27.80;19.60
326;DHT22;150;52.352;14.058;2023-08-12T08:49:20;28.00;19.40
326;DHT22;150;52.352;14.058;2023-08-12T08:51:47;28.10;20.30
326;DHT22;150;52.352;14.058;2023-08-12T08:54:15;28.30;19.40
326;DHT22;150;52.352;14.058;2023-08-12T08:56:42;28.40;19.50
326;DHT22;150;52.352;14.058;2023-08-12T08:59:09;28.40;17.70
326;DHT22;150;52.352;14.058;2023-08-12T09:01:36;28.30;17.90
326;DHT22;150;52.352;14.058;2023-08-12T09:04:05;28.30;18.20
326;DHT22;150;52.352;14.058;2023-08-12T09:06:34;28.20;18.60
326;DHT22;150;52.352;14.058;2023-08-12T09:09:04;28.10;18.80
326;DHT22;150;52.352;14.058;2023-08-12T09:11:33;28.20;19.70
326;DHT22;150;52.352;14.058;2023-08-12T09:14:00;28.10;19.10
326;DHT22;150;52.352;14.058;2023-08-12T09:16:27;28.10;19.30
326;DHT22;150;52.352;14.058;2023-08-12T09:18:56;28.00;19.50
326;DHT22;150;52.352;14.058;2023-08-12T09:21:22;28.00;20.00
326;DHT22;150;52.352;14.058;2023-08-12T09:23:50;28.00;20.40
326;DHT22;150;52.352;14.058;2023-08-12T09:26:20;28.10;19.40
326;DHT22;150;52.352;14.058;2023-08-12T09:28:48;28.20;19.80
326;DHT22;150;52.352;14.058;2023-08-12T09:31:22;28.30;20.50
326;DHT22;150;52.352;14.058;2023-08-12T09:33:50;28.40;19.40
326;DHT22;150;52.352;14.058;2023-08-12T09:36:17;28.50;19.70
326;DHT22;150;52.352;14.058;2023-08-12T09:38:43;28.50;20.70
326;DHT22;150;52.352;14.058;2023-08-12T09:41:12;28.50;19.70
326;DHT22;150;52.352;14.058;2023-08-12T09:43:40;28.30;19.10
326;DHT22;150;52.352;14.058;2023-08-12T09:46:10;28.20;19.50
326;DHT22;150;52.352;14.058;2023-08-12T09:48:38;28.20;19.70
326;DHT22;150;52.352;14.058;2023-08-12T09:51:04;28.10;19.90
326;DHT22;150;52.352;14.058;2023-08-12T09:53:32;28.10;19.40
326;DHT22;150;52.352;14.058;2023-08-12T09:56:05;28.10;20.40
326;DHT22;150;52.352;14.058;2023-08-12T09:58:35;28.20;19.90
326;DHT22;150;52.352;14.058;2023-08-12T10:01:03;28.20;19.70
326;DHT22;150;52.352;14.058;2023-08-12T10:03:33;28.10;19.80
326;DHT22;150;52.352;14.058;2023-08-12T10:06:01;28.10;20.40
326;DHT22;150;52.352;14.058;2023-08-12T10:08:28;28.20;19.90
326;DHT22;150;52.352;14.058;2023-08-12T10:10:55;28.40;19.90
326;DHT22;150;52.352;14.058;2023-08-12T10:13:22;28.40;19.30
326;DHT22;150;52.352;14.058;2023-08-12T10:15:50;28.40;19.40
326;DHT22;150;52.352;14.058;2023-08-12T10:18:18;28.50;19.80
326;DHT22;150;52.352;14.058;2023-08-12T10:20:46;28.60;19.60
326;DHT22;150;52.352;14.058;2023-08-12T10:23:16;28.70;20.30
326;DHT22;150;52.352;14.058;2023-08-12T10:25:44;28.80;19.80
326;DHT22;150;52.352;14.058;2023-08-12T10:28:11;28.90;19.30
326;DHT22;150;52.352;14.058;2023-08-12T10:30:39;29.10;18.60
326;DHT22;150;52.352;14.058;2023-08-12T10:33:07;29.20;19.50
326;DHT22;150;52.352;14.058;2023-08-12T10:35:45;29.30;19.90
326;DHT22;150;52.352;14.058;2023-08-12T10:38:16;29.40;18.20
326;DHT22;150;52.352;14.058;2023-08-12T10:40:43;29.50;18.30
326;DHT22;150;52.352;14.058;2023-08-12T10:43:11;29.60;18.30
326;DHT22;150;52.352;14.058;2023-08-12T10:45:43;29.80;18.50
326;DHT22;150;52.352;14.058;2023-08-12T10:48:17;29.90;18.50
326;DHT22;150;52.352;14.058;2023-08-12T10:50:45;30.00;17.20
326;DHT22;150;52.352;14.058;2023-08-12T10:53:25;29.90;17.40
326;DHT22;150;52.352;14.058;2023-08-12T10:55:56;29.90;18.50
326;DHT22;150;52.352;14.058;2023-08-12T10:58:28;29.90;18.00
326;DHT22;150;52.352;14.058;2023-08-12T11:00:56;29.80;18.30
326;DHT22;150;52.352;14.058;2023-08-12T11:03:24;29.60;18.30
326;DHT22;150;52.352;14.058;2023-08-12T11:05:52;29.50;18.30
326;DHT22;150;52.352;14.058;2023-08-12T11:08:25;29.50;18.30
326;DHT22;150;52.352;14.058;2023-08-12T11:10:55;29.50;19.00
326;DHT22;150;52.352;14.058;2023-08-12T11:13:22;29.50;18.50
326;DHT22;150;52.352;14.058;2023-08-12T11:15:49;29.30;19.00
326;DHT22;150;52.352;14.058;2023-08-12T11:18:17;29.10;19.20
326;DHT22;150;52.352;14.058;2023-08-12T11:20:47;29.00;19.60
326;DHT22;150;52.352;14.058;2023-08-12T11:23:14;28.90;19.70
326;DHT22;150;52.352;14.058;2023-08-12T11:25:43;28.70;20.20
326;DHT22;150;52.352;14.058;2023-08-12T11:28:10;28.70;20.60
326;DHT22;150;52.352;14.058;2023-08-12T11:30:39;28.70;20.90
326;DHT22;150;52.352;14.058;2023-08-12T11:33:07;28.60;21.10
326;DHT22;150;52.352;14.058;2023-08-12T11:35:34;28.60;21.50
326;DHT22;150;52.352;14.058;2023-08-12T11:38:05;28.70;20.90
326;DHT22;150;52.352;14.058;2023-08-12T11:40:31;28.80;21.20
326;DHT22;150;52.352;14.058;2023-08-12T11:42:58;28.90;20.80
326;DHT22;150;52.352;14.058;2023-08-12T11:45:26;28.90;20.90
326;DHT22;150;52.352;14.058;2023-08-12T11:47:53;28.80;20.90
326;DHT22;150;52.352;14.058;2023-08-12T11:50:21;28.80;21.10
326;DHT22;150;52.352;14.058;2023-08-12T11:52:48;28.70;21.30
326;DHT22;150;52.352;14.058;2023-08-12T11:55:17;28.60;22.40
326;DHT22;150;52.352;14.058;2023-08-12T11:57:44;28.50;23.70
326;DHT22;150;52.352;14.058;2023-08-12T12:00:12;28.40;24.80
326;DHT22;150;52.352;14.058;2023-08-12T12:02:41;28.30;24.20
326;DHT22;150;52.352;14.058;2023-08-12T12:05:09;28.20;24.00
326;DHT22;150;52.352;14.058;2023-08-12T12:07:36;28.10;24.60
326;DHT22;150;52.352;14.058;2023-08-12T12:10:04;28.10;25.00
326;DHT22;150;52.352;14.058;2023-08-12T12:12:33;28.00;25.80
326;DHT22;150;52.352;14.058;2023-08-12T12:15:00;28.00;26.50
326;DHT22;150;52.352;14.058;2023-08-12T12:17:27;27.90;26.50
326;DHT22;150;52.352;14.058;2023-08-12T12:19:55;27.90;26.50
326;DHT22;150;52.352;14.058;2023-08-12T12:22:26;27.90;26.50
326;DHT22;150;52.352;14.058;2023-08-12T12:24:54;27.80;27.20
326;DHT22;150;52.352;14.058;2023-08-12T12:27:20;27.70;27.20
326;DHT22;150;52.352;14.058;2023-08-12T12:29:48;27.70;27.80
326;DHT22;150;52.352;14.058;2023-08-12T12:32:18;27.60;28.30
326;DHT22;150;52.352;14.058;2023-08-12T12:34:44;27.60;28.50
326;DHT22;150;52.352;14.058;2023-08-12T12:37:12;27.50;29.00
326;DHT22;150;52.352;14.058;2023-08-12T12:39:38;27.60;28.30
326;DHT22;150;52.352;14.058;2023-08-12T12:42:05;27.60;28.30
326;DHT22;150;52.352;14.058;2023-08-12T12:44:34;27.60;27.60
326;DHT22;150;52.352;14.058;2023-08-12T12:47:02;27.60;26.80
326;DHT22;150;52.352;14.058;2023-08-12T12:49:29;27.60;26.90
326;DHT22;150;52.352;14.058;2023-08-12T12:51:57;27.50;26.40
326;DHT22;150;52.352;14.058;2023-08-12T12:54:24;27.60;26.30
326;DHT22;150;52.352;14.058;2023-08-12T12:56:51;27.50;26.30
326;DHT22;150;52.352;14.058;2023-08-12T12:59:17;27.60;25.80
326;DHT22;150;52.352;14.058;2023-08-12T13:01:44;27.60;26.30
326;DHT22;150;52.352;14.058;2023-08-12T13:04:12;27.60;25.40
326;DHT22;150;52.352;14.058;2023-08-12T13:06:39;27.50;25.60
326;DHT22;150;52.352;14.058;2023-08-12T13:09:05;27.50;25.90
326;DHT22;150;52.352;14.058;2023-08-12T13:11:33;27.40;26.00
326;DHT22;150;52.352;14.058;2023-08-12T13:14:01;27.40;26.30
326;DHT22;150;52.352;14.058;2023-08-12T13:16:27;27.40;26.20
326;DHT22;150;52.352;14.058;2023-08-12T13:18:54;27.40;26.30
326;DHT22;150;52.352;14.058;2023-08-12T13:21:22;27.50;26.30
326;DHT22;150;52.352;14.058;2023-08-12T13:23:49;27.40;25.20
326;DHT22;150;52.352;14.058;2023-08-12T13:26:15;27.40;25.60
326;DHT22;150;52.352;14.058;2023-08-12T13:28:42;27.40;25.80
326;DHT22;150;52.352;14.058;2023-08-12T13:31:09;27.50;26.10
326;DHT22;150;52.352;14.058;2023-08-12T13:33:36;27.60;25.00
326;DHT22;150;52.352;14.058;2023-08-12T13:36:03;27.60;25.10
326;DHT22;150;52.352;14.058;2023-08-12T13:38:31;27.70;24.40
326;DHT22;150;52.352;14.058;2023-08-12T13:40:58;27.80;25.20
326;DHT22;150;52.352;14.058;2023-08-12T13:43:35;28.00;24.50
326;DHT22;150;52.352;14.058;2023-08-12T13:46:02;28.10;24.50
326;DHT22;150;52.352;14.058;2023-08-12T13:48:29;28.10;24.20
326;DHT22;150;52.352;14.058;2023-08-12T13:50:55;28.20;24.10
326;DHT22;150;52.352;14.058;2023-08-12T13:53:22;28.30;23.80
326;DHT22;150;52.352;14.058;2023-08-12T13:55:50;28.40;23.70
326;DHT22;150;52.352;14.058;2023-08-12T13:58:17;28.40;23.90
326;DHT22;150;52.352;14.058;2023-08-12T14:00:44;28.40;23.60
326;DHT22;150;52.352;14.058;2023-08-12T14:03:10;28.40;23.00
326;DHT22;150;52.352;14.058;2023-08-12T14:05:37;28.50;23.10
326;DHT22;150;52.352;14.058;2023-08-12T14:08:04;28.50;22.70
326;DHT22;150;52.352;14.058;2023-08-12T14:10:31;28.60;22.00
326;DHT22;150;52.352;14.058;2023-08-12T14:12:59;28.80;23.10
326;DHT22;150;52.352;14.058;2023-08-12T14:15:25;28.90;22.00
326;DHT22;150;52.352;14.058;2023-08-12T14:17:52;29.10;21.40
326;DHT22;150;52.352;14.058;2023-08-12T14:20:18;29.10;21.60
326;DHT22;150;52.352;14.058;2023-08-12T14:22:45;29.20;21.00
326;DHT22;150;52.352;14.058;2023-08-12T14:25:12;29.20;20.70
326;DHT22;150;52.352;14.058;2023-08-12T14:27:38;29.40;21.90
326;DHT22;150;52.352;14.058;2023-08-12T14:30:08;29.40;20.40
326;DHT22;150;52.352;14.058;2023-08-12T14:32:35;29.40;20.00
326;DHT22;150;52.352;14.058;2023-08-12T14:35:02;29.50;19.80
326;DHT22;150;52.352;14.058;2023-08-12T14:37:30;29.50;19.60
326;DHT22;150;52.352;14.058;2023-08-12T14:39:57;29.60;20.60
326;DHT22;150;52.352;14.058;2023-08-12T14:42:24;29.70;20.20
326;DHT22;150;52.352;14.058;2023-08-12T14:44:50;29.70;20.00
326;DHT22;150;52.352;14.058;2023-08-12T14:47:18;29.90;20.60
326;DHT22;150;52.352;14.058;2023-08-12T14:49:45;29.80;19.10
326;DHT22;150;52.352;14.058;2023-08-12T14:52:16;29.80;19.30
326;DHT22;150;52.352;14.058;2023-08-12T14:54:43;29.80;19.70
326;DHT22;150;52.352;14.058;2023-08-12T14:57:10;30.00;19.40
326;DHT22;150;52.352;14.058;2023-08-12T14:59:37;29.80;20.10
326;DHT22;150;52.352;14.058;2023-08-12T15:02:04;29.80;19.90
326;DHT22;150;52.352;14.058;2023-08-12T15:04:36;29.80;19.60
326;DHT22;150;52.352;14.058;2023-08-12T15:07:03;29.70;18.70
326;DHT22;150;52.352;14.058;2023-08-12T15:09:30;29.70;19.80
326;DHT22;150;52.352;14.058;2023-08-12T15:11:56;29.70;19.90
326;DHT22;150;52.352;14.058;2023-08-12T15:14:23;29.70;19.30
326;DHT22;150;52.352;14.058;2023-08-12T15:16:51;29.60;18.70
326;DHT22;150;52.352;14.058;2023-08-12T15:19:17;29.50;19.10
326;DHT22;150;52.352;14.058;2023-08-12T15:21:46;29.60;18.30
326;DHT22;150;52.352;14.058;2023-08-12T15:24:14;29.60;18.30
326;DHT22;150;52.352;14.058;2023-08-12T15:26:41;29.80;19.00
326;DHT22;150;52.352;14.058;2023-08-12T15:29:08;30.00;18.50
326;DHT22;150;52.352;14.058;2023-08-12T15:31:36;30.00;18.50
326;DHT22;150;52.352;14.058;2023-08-12T15:34:03;30.10;18.60
326;DHT22;150;52.352;14.058;2023-08-12T15:36:30;30.10;18.60
326;DHT22;150;52.352;14.058;2023-08-12T15:39:00;30.20;18.60
326;DHT22;150;52.352;14.058;2023-08-12T15:41:28;30.10;18.60
326;DHT22;150;52.352;14.058;2023-08-12T15:43:54;30.10;18.60
326;DHT22;150;52.352;14.058;2023-08-12T15:46:21;30.00;18.80
326;DHT22;150;52.352;14.058;2023-08-12T15:48:48;30.10;19.00
326;DHT22;150;52.352;14.058;2023-08-12T15:51:14;30.10;18.60
326;DHT22;150;52.352;14.058;2023-08-12T15:53:41;30.10;18.70
326;DHT22;150;52.352;14.058;2023-08-12T15:56:10;30.00;18.60
326;DHT22;150;52.352;14.058;2023-08-12T15:58:36;29.90;18.30
326;DHT22;150;52.352;14.058;2023-08-12T16:01:03;29.80;18.50
326;DHT22;150;52.352;14.058;2023-08-12T16:03:30;29.70;18.40
326;DHT22;150;52.352;14.058;2023-08-12T16:05:57;29.60;18.30
326;DHT22;150;52.352;14.058;2023-08-12T16:08:25;29.50;18.40
326;DHT22;150;52.352;14.058;2023-08-12T16:10:52;29.40;18.80
326;DHT22;150;52.352;14.058;2023-08-12T16:13:20;29.30;19.00
326;DHT22;150;52.352;14.058;2023-08-12T16:15:47;29.30;19.40
326;DHT22;150;52.352;14.058;2023-08-12T16:18:14;29.30;19.40